CZUM/ZUM METAR and TAF weather

Enter ICAO airport designator
Station Type Date Time Source
CZUM METAR 2019/10/16 19:00 UTC NOAA

CZUM 161900Z AUTO 24011G22KT 210V270 9SM BKN027 BKN033 OVC040 04/M00 A2973 RMK SLP088


Station Type Date Time Source
CZUM Decoded METAR 2019/10/16 19:00 UTC NOAA

Churchill Falls, Nfld., Canada (CZUM) 53-33N 064-06W 440M
Oct 16, 2019 - 03:00 PM EDT / 2019.10.16 1900 UTC
Wind: from the WSW (240 degrees) at 13 MPH (11 KT) gusting to 25 MPH (22 KT) (direction variable):0
Visibility: 9 mile(s):0
Sky conditions: overcast
Temperature: 39 F (4 C)
Dew Point: 32 F (0 C)
Relative Humidity: 75%
Pressure (altimeter): 29.73 in. Hg (1006 hPa)
ob: CZUM 161900Z AUTO 24011G22KT 210V270 9SM BKN027 BKN033 OVC040 04/M00 A2973 RMK SLP088
cycle: 19

Station Type Date Time Source
CZUM TAF 2019/10/16 14:42 UTC NOAA

TAF CZUM 161338Z 1614/1702 27005KT P6SM -RA SCT003 OVC040
TEMPO 1614/1616 21/2SM -RA BR BKN003 OVC010
BECMG 1614/1616 27012G22KT
FM161600 27012G22KT P6SM BKN020
TEMPO 1616/1618 BKN030
FM161800 25012G22KT P6SM BKN030
RMK FCST BASED ON AUTO OBS. NXT FCST BY 162000Z

Example: see airport list